Saltar para o conteúdo principal

Elvas

ID 1210835 · 38.8908, -7.1398 mapa

Última leitura · 2026-05-09 18:00 (Europe/Lisbon)

Temperatura
17.9 °C
Humidade
66 %
Pressão
Precipitação
0.0 mm
Radiação
1,198 W/m²
Velocidade do vento
27.7 km/h
Direcção do vento
S · Sul

Histórico de 24 horas

Hora (Europe/Lisbon) Temperatura Humidade Pressão Chuva Vento Direcção
2026-05-09 18:00 17.9 °C 66 % 0.0 mm 27.7 km/h S
2026-05-09 17:00 17.1 °C 75 % 0.2 mm 16.6 km/h S
2026-05-09 16:00 20.1 °C 53 % 0.0 mm 31.0 km/h S
2026-05-09 15:00 20.2 °C 53 % 0.0 mm 27.7 km/h SW
2026-05-09 14:00 19.4 °C 60 % 0.0 mm 22.3 km/h SW
2026-05-09 13:00 17.8 °C 75 % 0.0 mm 28.1 km/h SW
2026-05-09 12:00 17.1 °C 79 % 0.3 mm 21.6 km/h S
2026-05-09 11:00 15.7 °C 87 % 0.0 mm 19.4 km/h S
2026-05-09 10:00 13.6 °C 95 % 0.3 mm 11.5 km/h SE
2026-05-09 09:00 12.1 °C 97 % 2.3 mm 9.0 km/h SE
2026-05-09 08:00 12.1 °C 98 % 7.3 mm 6.1 km/h SW
2026-05-09 07:00 12.4 °C 98 % 1.7 mm 6.1 km/h E
2026-05-09 06:00 12.7 °C 95 % 3.2 mm 6.1 km/h E
2026-05-09 05:00 13.6 °C 83 % 2.1 mm 7.2 km/h S
2026-05-09 04:00 14.1 °C 75 % 0.0 mm 1.4 km/h SE
2026-05-09 03:00 14.0 °C 82 % 0.0 mm 4.7 km/h E
2026-05-09 02:00 14.1 °C 82 % 0.0 mm 4.3 km/h S
2026-05-09 01:00 15.1 °C 69 % 0.0 mm 10.1 km/h SW
2026-05-09 00:00 15.8 °C 55 % 0.0 mm 11.2 km/h S
2026-05-08 23:00 16.5 °C 49 % 0.0 mm 13.7 km/h S
2026-05-08 22:00 16.9 °C 46 % 0.0 mm 11.5 km/h SW
2026-05-08 21:00 18.2 °C 43 % 0.0 mm 11.5 km/h SW
2026-05-08 20:00 20.4 °C 37 % 0.0 mm 15.1 km/h SW
2026-05-08 19:00 21.1 °C 35 % 0.0 mm 13.0 km/h S